sensor_id;sensor_type;location;lat;lon;timestamp;P1;durP1;ratioP1;P2;durP2;ratioP2
8312;SDS011;4194;43.408;24.626;2023-02-01T00:01:53;5.70;;;3.73;;
8312;SDS011;4194;43.408;24.626;2023-02-01T00:04:19;5.73;;;3.90;;
8312;SDS011;4194;43.408;24.626;2023-02-01T00:06:45;5.53;;;3.80;;
8312;SDS011;4194;43.408;24.626;2023-02-01T00:09:11;5.83;;;3.93;;
8312;SDS011;4194;43.408;24.626;2023-02-01T00:11:37;7.40;;;4.07;;
8312;SDS011;4194;43.408;24.626;2023-02-01T00:14:02;5.80;;;4.00;;
8312;SDS011;4194;43.408;24.626;2023-02-01T00:16:28;4.53;;;3.80;;
8312;SDS011;4194;43.408;24.626;2023-02-01T00:18:59;4.70;;;3.30;;
8312;SDS011;4194;43.408;24.626;2023-02-01T00:21:26;6.67;;;4.20;;
8312;SDS011;4194;43.408;24.626;2023-02-01T00:23:53;5.07;;;4.30;;
8312;SDS011;4194;43.408;24.626;2023-02-01T00:26:22;9.43;;;3.80;;
8312;SDS011;4194;43.408;24.626;2023-02-01T00:28:55;8.23;;;3.80;;
8312;SDS011;4194;43.408;24.626;2023-02-01T00:31:20;7.53;;;4.13;;
8312;SDS011;4194;43.408;24.626;2023-02-01T00:33:47;6.60;;;3.90;;
8312;SDS011;4194;43.408;24.626;2023-02-01T00:36:13;7.60;;;4.23;;
8312;SDS011;4194;43.408;24.626;2023-02-01T00:38:39;4.10;;;3.40;;
8312;SDS011;4194;43.408;24.626;2023-02-01T00:43:38;5.17;;;3.83;;
8312;SDS011;4194;43.408;24.626;2023-02-01T00:46:04;6.03;;;3.87;;
8312;SDS011;4194;43.408;24.626;2023-02-01T00:48:30;6.07;;;4.07;;
8312;SDS011;4194;43.408;24.626;2023-02-01T00:51:00;4.27;;;3.67;;
8312;SDS011;4194;43.408;24.626;2023-02-01T00:53:27;6.00;;;4.10;;
8312;SDS011;4194;43.408;24.626;2023-02-01T00:55:53;5.87;;;4.07;;
8312;SDS011;4194;43.408;24.626;2023-02-01T00:58:19;4.37;;;3.60;;
8312;SDS011;4194;43.408;24.626;2023-02-01T01:00:45;5.60;;;3.93;;
8312;SDS011;4194;43.408;24.626;2023-02-01T01:03:12;5.47;;;3.77;;
8312;SDS011;4194;43.408;24.626;2023-02-01T01:05:47;5.47;;;3.37;;
8312;SDS011;4194;43.408;24.626;2023-02-01T01:08:14;4.73;;;3.33;;
8312;SDS011;4194;43.408;24.626;2023-02-01T01:10:40;5.60;;;3.47;;
8312;SDS011;4194;43.408;24.626;2023-02-01T01:13:06;3.93;;;3.37;;
8312;SDS011;4194;43.408;24.626;2023-02-01T01:15:36;4.37;;;2.80;;
8312;SDS011;4194;43.408;24.626;2023-02-01T01:18:03;5.10;;;3.50;;
8312;SDS011;4194;43.408;24.626;2023-02-01T01:20:29;4.33;;;3.20;;
8312;SDS011;4194;43.408;24.626;2023-02-01T01:22:54;4.20;;;2.93;;
8312;SDS011;4194;43.408;24.626;2023-02-01T01:25:20;5.60;;;3.33;;
8312;SDS011;4194;43.408;24.626;2023-02-01T01:27:46;8.30;;;3.53;;
8312;SDS011;4194;43.408;24.626;2023-02-01T01:30:12;3.83;;;3.47;;
8312;SDS011;4194;43.408;24.626;2023-02-01T01:32:38;4.33;;;3.70;;
8312;SDS011;4194;43.408;24.626;2023-02-01T01:35:04;5.83;;;3.80;;
8312;SDS011;4194;43.408;24.626;2023-02-01T01:37:31;6.87;;;3.47;;
8312;SDS011;4194;43.408;24.626;2023-02-01T01:39:57;6.40;;;3.53;;
8312;SDS011;4194;43.408;24.626;2023-02-01T01:42:23;6.23;;;3.60;;
8312;SDS011;4194;43.408;24.626;2023-02-01T01:44:56;4.27;;;3.47;;
8312;SDS011;4194;43.408;24.626;2023-02-01T01:47:29;7.43;;;3.63;;
8312;SDS011;4194;43.408;24.626;2023-02-01T01:50:02;4.60;;;3.97;;
8312;SDS011;4194;43.408;24.626;2023-02-01T01:52:32;4.90;;;3.40;;
8312;SDS011;4194;43.408;24.626;2023-02-01T01:54:58;6.63;;;4.03;;
8312;SDS011;4194;43.408;24.626;2023-02-01T01:57:29;8.17;;;4.13;;
8312;SDS011;4194;43.408;24.626;2023-02-01T02:00:00;5.23;;;3.93;;
8312;SDS011;4194;43.408;24.626;2023-02-01T02:02:32;5.37;;;4.17;;
8312;SDS011;4194;43.408;24.626;2023-02-01T02:04:58;7.53;;;4.50;;
8312;SDS011;4194;43.408;24.626;2023-02-01T02:07:25;5.87;;;4.30;;
8312;SDS011;4194;43.408;24.626;2023-02-01T02:09:54;6.20;;;4.40;;
8312;SDS011;4194;43.408;24.626;2023-02-01T02:12:20;7.10;;;4.67;;
8312;SDS011;4194;43.408;24.626;2023-02-01T02:14:46;6.77;;;4.63;;
8312;SDS011;4194;43.408;24.626;2023-02-01T02:19:56;11.17;;;4.70;;
8312;SDS011;4194;43.408;24.626;2023-02-01T02:23:07;6.90;;;5.07;;
8312;SDS011;4194;43.408;24.626;2023-02-01T02:28:30;6.97;;;4.80;;
8312;SDS011;4194;43.408;24.626;2023-02-01T02:34:26;10.07;;;5.50;;
8312;SDS011;4194;43.408;24.626;2023-02-01T02:37:20;6.73;;;4.70;;
8312;SDS011;4194;43.408;24.626;2023-02-01T02:45:49;6.30;;;4.63;;
8312;SDS011;4194;43.408;24.626;2023-02-01T02:48:54;11.63;;;6.37;;
8312;SDS011;4194;43.408;24.626;2023-02-01T02:51:49;7.37;;;4.93;;
8312;SDS011;4194;43.408;24.626;2023-02-01T02:54:36;6.47;;;5.37;;
8312;SDS011;4194;43.408;24.626;2023-02-01T02:57:32;8.90;;;6.13;;
8312;SDS011;4194;43.408;24.626;2023-02-01T03:00:21;7.33;;;5.23;;
8312;SDS011;4194;43.408;24.626;2023-02-01T03:03:08;10.33;;;5.43;;
8312;SDS011;4194;43.408;24.626;2023-02-01T03:05:52;6.77;;;5.23;;
8312;SDS011;4194;43.408;24.626;2023-02-01T03:08:25;6.93;;;5.90;;
8312;SDS011;4194;43.408;24.626;2023-02-01T03:13:36;7.30;;;5.67;;
8312;SDS011;4194;43.408;24.626;2023-02-01T03:16:16;7.23;;;5.53;;
8312;SDS011;4194;43.408;24.626;2023-02-01T03:19:09;5.07;;;4.57;;
8312;SDS011;4194;43.408;24.626;2023-02-01T03:21:48;8.63;;;4.97;;
8312;SDS011;4194;43.408;24.626;2023-02-01T03:26:45;6.63;;;4.73;;
8312;SDS011;4194;43.408;24.626;2023-02-01T03:29:21;5.70;;;4.87;;
8312;SDS011;4194;43.408;24.626;2023-02-01T03:31:49;15.37;;;4.77;;
8312;SDS011;4194;43.408;24.626;2023-02-01T03:34:15;7.83;;;4.90;;
8312;SDS011;4194;43.408;24.626;2023-02-01T03:36:43;7.53;;;4.57;;
8312;SDS011;4194;43.408;24.626;2023-02-01T03:39:17;6.50;;;4.70;;
8312;SDS011;4194;43.408;24.626;2023-02-01T03:42:03;9.23;;;4.87;;
8312;SDS011;4194;43.408;24.626;2023-02-01T03:44:38;10.87;;;4.70;;
8312;SDS011;4194;43.408;24.626;2023-02-01T03:47:23;5.90;;;4.60;;
8312;SDS011;4194;43.408;24.626;2023-02-01T03:49:53;7.60;;;5.53;;
8312;SDS011;4194;43.408;24.626;2023-02-01T03:52:22;7.00;;;4.57;;
8312;SDS011;4194;43.408;24.626;2023-02-01T03:55:01;5.80;;;4.50;;
8312;SDS011;4194;43.408;24.626;2023-02-01T03:57:31;11.03;;;5.30;;
8312;SDS011;4194;43.408;24.626;2023-02-01T04:00:08;10.20;;;4.63;;
8312;SDS011;4194;43.408;24.626;2023-02-01T04:02:48;10.47;;;4.40;;
8312;SDS011;4194;43.408;24.626;2023-02-01T04:05:13;8.60;;;4.53;;
8312;SDS011;4194;43.408;24.626;2023-02-01T04:07:39;7.93;;;4.70;;
8312;SDS011;4194;43.408;24.626;2023-02-01T04:10:06;5.30;;;4.27;;
8312;SDS011;4194;43.408;24.626;2023-02-01T04:12:32;8.60;;;4.30;;
8312;SDS011;4194;43.408;24.626;2023-02-01T04:14:58;6.67;;;4.00;;
8312;SDS011;4194;43.408;24.626;2023-02-01T04:17:24;5.67;;;4.70;;
8312;SDS011;4194;43.408;24.626;2023-02-01T04:19:50;8.00;;;5.00;;
8312;SDS011;4194;43.408;24.626;2023-02-01T04:22:15;7.27;;;5.37;;
8312;SDS011;4194;43.408;24.626;2023-02-01T04:24:41;7.17;;;4.93;;
8312;SDS011;4194;43.408;24.626;2023-02-01T04:27:07;5.40;;;4.50;;
8312;SDS011;4194;43.408;24.626;2023-02-01T04:29:32;7.63;;;4.40;;
8312;SDS011;4194;43.408;24.626;2023-02-01T04:31:58;4.67;;;3.93;;
8312;SDS011;4194;43.408;24.626;2023-02-01T04:34:24;10.83;;;4.87;;
8312;SDS011;4194;43.408;24.626;2023-02-01T04:36:50;8.60;;;4.50;;
8312;SDS011;4194;43.408;24.626;2023-02-01T04:39:16;8.30;;;5.23;;
8312;SDS011;4194;43.408;24.626;2023-02-01T04:41:42;8.37;;;5.60;;
8312;SDS011;4194;43.408;24.626;2023-02-01T04:44:15;8.70;;;5.80;;
8312;SDS011;4194;43.408;24.626;2023-02-01T04:46:42;9.17;;;5.60;;
8312;SDS011;4194;43.408;24.626;2023-02-01T04:49:08;11.27;;;5.63;;
8312;SDS011;4194;43.408;24.626;2023-02-01T04:51:35;9.57;;;5.03;;
8312;SDS011;4194;43.408;24.626;2023-02-01T04:54:01;6.37;;;4.37;;
8312;SDS011;4194;43.408;24.626;2023-02-01T04:56:26;7.27;;;3.93;;
8312;SDS011;4194;43.408;24.626;2023-02-01T04:58:52;6.37;;;4.40;;
8312;SDS011;4194;43.408;24.626;2023-02-01T05:01:18;9.73;;;4.13;;
8312;SDS011;4194;43.408;24.626;2023-02-01T05:03:44;6.73;;;4.73;;
8312;SDS011;4194;43.408;24.626;2023-02-01T05:06:10;11.77;;;4.13;;
8312;SDS011;4194;43.408;24.626;2023-02-01T05:08:36;5.37;;;3.80;;
8312;SDS011;4194;43.408;24.626;2023-02-01T05:11:01;5.20;;;3.97;;
8312;SDS011;4194;43.408;24.626;2023-02-01T05:13:28;6.30;;;3.90;;
8312;SDS011;4194;43.408;24.626;2023-02-01T05:16:13;6.13;;;3.97;;
8312;SDS011;4194;43.408;24.626;2023-02-01T05:18:39;6.17;;;4.00;;
8312;SDS011;4194;43.408;24.626;2023-02-01T05:21:04;7.70;;;3.80;;
8312;SDS011;4194;43.408;24.626;2023-02-01T05:23:31;6.23;;;4.17;;
8312;SDS011;4194;43.408;24.626;2023-02-01T05:26:00;8.60;;;4.50;;
8312;SDS011;4194;43.408;24.626;2023-02-01T05:28:26;6.30;;;4.30;;
8312;SDS011;4194;43.408;24.626;2023-02-01T05:30:52;8.37;;;4.97;;
8312;SDS011;4194;43.408;24.626;2023-02-01T05:33:19;12.93;;;6.17;;
8312;SDS011;4194;43.408;24.626;2023-02-01T05:35:45;10.60;;;5.00;;
8312;SDS011;4194;43.408;24.626;2023-02-01T05:38:10;7.67;;;4.23;;
8312;SDS011;4194;43.408;24.626;2023-02-01T05:40:36;9.07;;;4.33;;
8312;SDS011;4194;43.408;24.626;2023-02-01T05:43:02;7.07;;;4.90;;
8312;SDS011;4194;43.408;24.626;2023-02-01T05:45:28;9.23;;;4.33;;
8312;SDS011;4194;43.408;24.626;2023-02-01T05:47:53;6.37;;;4.27;;
8312;SDS011;4194;43.408;24.626;2023-02-01T05:50:19;7.47;;;4.40;;
8312;SDS011;4194;43.408;24.626;2023-02-01T05:52:45;5.43;;;4.23;;
8312;SDS011;4194;43.408;24.626;2023-02-01T05:55:10;8.07;;;4.93;;
8312;SDS011;4194;43.408;24.626;2023-02-01T05:57:36;13.50;;;5.70;;
8312;SDS011;4194;43.408;24.626;2023-02-01T06:00:02;14.00;;;6.13;;
8312;SDS011;4194;43.408;24.626;2023-02-01T06:02:28;11.37;;;5.03;;
8312;SDS011;4194;43.408;24.626;2023-02-01T06:04:54;9.00;;;4.40;;
8312;SDS011;4194;43.408;24.626;2023-02-01T06:07:20;7.47;;;5.17;;
8312;SDS011;4194;43.408;24.626;2023-02-01T06:09:45;8.23;;;4.70;;
8312;SDS011;4194;43.408;24.626;2023-02-01T06:12:11;6.70;;;5.03;;
8312;SDS011;4194;43.408;24.626;2023-02-01T06:14:37;11.43;;;5.23;;
8312;SDS011;4194;43.408;24.626;2023-02-01T06:17:03;7.23;;;4.73;;
8312;SDS011;4194;43.408;24.626;2023-02-01T06:19:30;10.67;;;5.07;;
8312;SDS011;4194;43.408;24.626;2023-02-01T06:21:56;11.33;;;5.63;;
8312;SDS011;4194;43.408;24.626;2023-02-01T06:24:22;11.20;;;4.83;;
8312;SDS011;4194;43.408;24.626;2023-02-01T06:26:47;8.53;;;4.73;;
8312;SDS011;4194;43.408;24.626;2023-02-01T06:29:13;21.73;;;9.77;;
8312;SDS011;4194;43.408;24.626;2023-02-01T06:31:39;34.23;;;15.83;;
8312;SDS011;4194;43.408;24.626;2023-02-01T06:34:05;22.47;;;12.53;;
8312;SDS011;4194;43.408;24.626;2023-02-01T06:36:30;8.67;;;5.03;;
8312;SDS011;4194;43.408;24.626;2023-02-01T06:38:56;8.97;;;5.37;;
8312;SDS011;4194;43.408;24.626;2023-02-01T06:41:24;7.00;;;3.27;;
8312;SDS011;4194;43.408;24.626;2023-02-01T06:43:50;10.90;;;3.90;;
8312;SDS011;4194;43.408;24.626;2023-02-01T06:46:16;7.97;;;3.87;;
8312;SDS011;4194;43.408;24.626;2023-02-01T06:48:42;9.10;;;4.20;;
8312;SDS011;4194;43.408;24.626;2023-02-01T06:51:21;6.30;;;3.60;;
8312;SDS011;4194;43.408;24.626;2023-02-01T06:53:48;6.47;;;4.13;;
8312;SDS011;4194;43.408;24.626;2023-02-01T06:56:14;13.37;;;5.27;;
8312;SDS011;4194;43.408;24.626;2023-02-01T06:58:40;8.30;;;4.53;;
8312;SDS011;4194;43.408;24.626;2023-02-01T07:01:06;20.00;;;7.87;;
8312;SDS011;4194;43.408;24.626;2023-02-01T07:03:33;16.90;;;7.33;;
8312;SDS011;4194;43.408;24.626;2023-02-01T07:05:59;13.50;;;7.93;;
8312;SDS011;4194;43.408;24.626;2023-02-01T07:08:28;14.40;;;5.43;;
8312;SDS011;4194;43.408;24.626;2023-02-01T07:10:54;9.43;;;3.83;;
8312;SDS011;4194;43.408;24.626;2023-02-01T07:13:20;9.50;;;4.13;;
8312;SDS011;4194;43.408;24.626;2023-02-01T07:15:46;6.83;;;3.90;;
8312;SDS011;4194;43.408;24.626;2023-02-01T07:18:12;6.97;;;3.90;;
8312;SDS011;4194;43.408;24.626;2023-02-01T07:20:39;9.33;;;4.23;;
8312;SDS011;4194;43.408;24.626;2023-02-01T07:23:05;8.03;;;4.37;;
8312;SDS011;4194;43.408;24.626;2023-02-01T07:25:31;7.27;;;3.80;;
8312;SDS011;4194;43.408;24.626;2023-02-01T07:27:59;6.80;;;3.60;;
8312;SDS011;4194;43.408;24.626;2023-02-01T07:30:29;7.73;;;4.17;;
8312;SDS011;4194;43.408;24.626;2023-02-01T07:32:55;9.27;;;4.27;;
8312;SDS011;4194;43.408;24.626;2023-02-01T07:35:24;4.67;;;3.50;;
8312;SDS011;4194;43.408;24.626;2023-02-01T07:37:49;6.03;;;4.10;;
8312;SDS011;4194;43.408;24.626;2023-02-01T07:40:15;5.90;;;3.60;;
8312;SDS011;4194;43.408;24.626;2023-02-01T07:42:41;11.47;;;4.27;;
8312;SDS011;4194;43.408;24.626;2023-02-01T07:45:07;4.87;;;3.80;;
8312;SDS011;4194;43.408;24.626;2023-02-01T07:47:32;5.60;;;3.70;;
8312;SDS011;4194;43.408;24.626;2023-02-01T07:49:58;6.13;;;3.30;;
8312;SDS011;4194;43.408;24.626;2023-02-01T07:52:24;5.37;;;3.50;;
8312;SDS011;4194;43.408;24.626;2023-02-01T07:54:52;11.33;;;4.43;;
8312;SDS011;4194;43.408;24.626;2023-02-01T07:57:18;8.93;;;4.70;;
8312;SDS011;4194;43.408;24.626;2023-02-01T07:59:44;6.30;;;3.43;;
8312;SDS011;4194;43.408;24.626;2023-02-01T08:02:28;5.87;;;3.20;;
8312;SDS011;4194;43.408;24.626;2023-02-01T08:04:54;5.80;;;3.07;;
8312;SDS011;4194;43.408;24.626;2023-02-01T08:07:19;6.63;;;3.67;;
8312;SDS011;4194;43.408;24.626;2023-02-01T08:09:45;8.03;;;3.57;;
8312;SDS011;4194;43.408;24.626;2023-02-01T08:12:11;7.27;;;3.30;;
8312;SDS011;4194;43.408;24.626;2023-02-01T08:14:36;8.63;;;4.03;;
8312;SDS011;4194;43.408;24.626;2023-02-01T08:17:02;6.70;;;3.77;;
8312;SDS011;4194;43.408;24.626;2023-02-01T08:19:28;6.97;;;3.17;;
8312;SDS011;4194;43.408;24.626;2023-02-01T08:21:53;8.90;;;2.93;;
8312;SDS011;4194;43.408;24.626;2023-02-01T08:24:19;6.77;;;2.80;;
8312;SDS011;4194;43.408;24.626;2023-02-01T08:26:50;6.30;;;2.57;;
8312;SDS011;4194;43.408;24.626;2023-02-01T08:29:15;5.90;;;3.03;;
8312;SDS011;4194;43.408;24.626;2023-02-01T08:31:42;7.67;;;3.60;;
8312;SDS011;4194;43.408;24.626;2023-02-01T08:34:08;5.97;;;3.33;;
8312;SDS011;4194;43.408;24.626;2023-02-01T08:36:34;4.77;;;3.13;;
8312;SDS011;4194;43.408;24.626;2023-02-01T08:39:00;10.37;;;2.80;;
8312;SDS011;4194;43.408;24.626;2023-02-01T08:41:27;4.97;;;3.60;;
8312;SDS011;4194;43.408;24.626;2023-02-01T08:43:55;6.20;;;3.20;;
8312;SDS011;4194;43.408;24.626;2023-02-01T08:46:21;7.80;;;3.87;;
8312;SDS011;4194;43.408;24.626;2023-02-01T08:48:47;6.97;;;3.37;;
8312;SDS011;4194;43.408;24.626;2023-02-01T08:51:14;5.30;;;3.67;;
8312;SDS011;4194;43.408;24.626;2023-02-01T08:53:41;8.37;;;4.67;;
8312;SDS011;4194;43.408;24.626;2023-02-01T08:56:08;8.13;;;3.30;;
8312;SDS011;4194;43.408;24.626;2023-02-01T08:58:35;4.13;;;3.10;;
8312;SDS011;4194;43.408;24.626;2023-02-01T09:01:04;6.27;;;3.23;;
8312;SDS011;4194;43.408;24.626;2023-02-01T09:03:30;4.97;;;2.83;;
8312;SDS011;4194;43.408;24.626;2023-02-01T09:06:00;9.13;;;4.00;;
8312;SDS011;4194;43.408;24.626;2023-02-01T09:08:33;5.47;;;3.50;;
8312;SDS011;4194;43.408;24.626;2023-02-01T09:11:00;5.60;;;2.70;;
8312;SDS011;4194;43.408;24.626;2023-02-01T09:13:27;4.80;;;3.13;;
8312;SDS011;4194;43.408;24.626;2023-02-01T09:15:53;9.00;;;3.10;;
8312;SDS011;4194;43.408;24.626;2023-02-01T09:18:19;10.23;;;3.17;;
8312;SDS011;4194;43.408;24.626;2023-02-01T09:20:45;9.60;;;5.10;;
8312;SDS011;4194;43.408;24.626;2023-02-01T09:23:11;3.80;;;2.20;;
8312;SDS011;4194;43.408;24.626;2023-02-01T09:25:37;4.30;;;1.93;;
8312;SDS011;4194;43.408;24.626;2023-02-01T09:28:03;14.90;;;2.90;;
8312;SDS011;4194;43.408;24.626;2023-02-01T09:30:31;5.57;;;2.70;;
8312;SDS011;4194;43.408;24.626;2023-02-01T09:32:58;4.67;;;1.90;;
8312;SDS011;4194;43.408;24.626;2023-02-01T09:35:24;5.17;;;2.50;;
8312;SDS011;4194;43.408;24.626;2023-02-01T09:37:51;7.00;;;2.87;;
8312;SDS011;4194;43.408;24.626;2023-02-01T09:40:17;4.73;;;2.67;;
8312;SDS011;4194;43.408;24.626;2023-02-01T09:48:21;6.17;;;2.63;;
8312;SDS011;4194;43.408;24.626;2023-02-01T09:50:54;6.97;;;2.07;;
8312;SDS011;4194;43.408;24.626;2023-02-01T09:56:12;7.47;;;2.17;;
8312;SDS011;4194;43.408;24.626;2023-02-01T10:01:12;5.40;;;2.80;;
8312;SDS011;4194;43.408;24.626;2023-02-01T10:03:39;4.67;;;2.20;;
8312;SDS011;4194;43.408;24.626;2023-02-01T10:22:02;3.70;;;2.40;;
8312;SDS011;4194;43.408;24.626;2023-02-01T10:32:38;4.10;;;1.40;;
8312;SDS011;4194;43.408;24.626;2023-02-01T10:35:09;4.07;;;2.17;;
8312;SDS011;4194;43.408;24.626;2023-02-01T10:37:37;5.70;;;2.20;;
8312;SDS011;4194;43.408;24.626;2023-02-01T10:42:47;6.00;;;2.67;;
8312;SDS011;4194;43.408;24.626;2023-02-01T10:45:23;6.23;;;1.77;;
8312;SDS011;4194;43.408;24.626;2023-02-01T10:47:52;3.77;;;1.60;;
8312;SDS011;4194;43.408;24.626;2023-02-01T10:53:31;5.53;;;1.97;;
8312;SDS011;4194;43.408;24.626;2023-02-01T10:56:24;5.83;;;2.47;;
8312;SDS011;4194;43.408;24.626;2023-02-01T10:58:58;4.10;;;2.63;;
8312;SDS011;4194;43.408;24.626;2023-02-01T11:01:41;5.83;;;2.10;;
8312;SDS011;4194;43.408;24.626;2023-02-01T11:04:10;9.83;;;5.77;;
8312;SDS011;4194;43.408;24.626;2023-02-01T11:11:52;3.90;;;1.50;;
8312;SDS011;4194;43.408;24.626;2023-02-01T11:16:52;2.33;;;1.83;;
8312;SDS011;4194;43.408;24.626;2023-02-01T11:19:45;1.23;;;1.10;;
8312;SDS011;4194;43.408;24.626;2023-02-01T11:22:12;4.93;;;1.80;;
8312;SDS011;4194;43.408;24.626;2023-02-01T11:24:38;4.00;;;1.43;;
8312;SDS011;4194;43.408;24.626;2023-02-01T11:27:06;2.70;;;1.37;;
8312;SDS011;4194;43.408;24.626;2023-02-01T11:29:43;4.13;;;1.23;;
8312;SDS011;4194;43.408;24.626;2023-02-01T11:32:12;2.73;;;2.10;;
8312;SDS011;4194;43.408;24.626;2023-02-01T11:34:47;8.17;;;5.77;;
8312;SDS011;4194;43.408;24.626;2023-02-01T11:39:52;3.70;;;2.13;;
8312;SDS011;4194;43.408;24.626;2023-02-01T11:42:20;2.17;;;1.40;;
8312;SDS011;4194;43.408;24.626;2023-02-01T11:44:46;4.57;;;1.40;;
8312;SDS011;4194;43.408;24.626;2023-02-01T11:50:00;8.57;;;1.80;;
8312;SDS011;4194;43.408;24.626;2023-02-01T11:53:12;3.40;;;1.80;;
8312;SDS011;4194;43.408;24.626;2023-02-01T11:55:32;2.40;;;1.40;;
8312;SDS011;4194;43.408;24.626;2023-02-01T12:06:55;5.00;;;1.57;;
8312;SDS011;4194;43.408;24.626;2023-02-01T12:12:24;4.33;;;1.77;;
8312;SDS011;4194;43.408;24.626;2023-02-01T12:15:00;4.93;;;1.80;;
8312;SDS011;4194;43.408;24.626;2023-02-01T12:25:46;1.30;;;1.20;;
8312;SDS011;4194;43.408;24.626;2023-02-01T12:36:46;2.60;;;1.50;;
8312;SDS011;4194;43.408;24.626;2023-02-01T12:39:32;3.80;;;1.40;;
8312;SDS011;4194;43.408;24.626;2023-02-01T12:42:00;2.43;;;1.20;;
8312;SDS011;4194;43.408;24.626;2023-02-01T12:44:43;1.67;;;1.20;;
8312;SDS011;4194;43.408;24.626;2023-02-01T12:48:12;4.50;;;1.60;;
8312;SDS011;4194;43.408;24.626;2023-02-01T12:50:13;2.33;;;1.17;;
8312;SDS011;4194;43.408;24.626;2023-02-01T12:52:50;3.70;;;1.40;;
8312;SDS011;4194;43.408;24.626;2023-02-01T12:58:15;2.30;;;1.70;;
8312;SDS011;4194;43.408;24.626;2023-02-01T13:06:33;7.00;;;1.47;;
8312;SDS011;4194;43.408;24.626;2023-02-01T13:09:21;3.30;;;1.40;;
8312;SDS011;4194;43.408;24.626;2023-02-01T13:11:59;3.00;;;1.80;;
8312;SDS011;4194;43.408;24.626;2023-02-01T13:14:40;2.03;;;1.57;;
8312;SDS011;4194;43.408;24.626;2023-02-01T13:17:28;3.47;;;1.50;;
8312;SDS011;4194;43.408;24.626;2023-02-01T13:19:57;2.60;;;1.40;;
8312;SDS011;4194;43.408;24.626;2023-02-01T13:22:43;3.30;;;1.60;;
8312;SDS011;4194;43.408;24.626;2023-02-01T13:27:54;3.83;;;1.70;;
8312;SDS011;4194;43.408;24.626;2023-02-01T13:30:23;4.80;;;1.83;;
8312;SDS011;4194;43.408;24.626;2023-02-01T13:33:26;5.77;;;2.10;;
8312;SDS011;4194;43.408;24.626;2023-02-01T13:41:43;3.47;;;1.70;;
8312;SDS011;4194;43.408;24.626;2023-02-01T13:45:00;3.57;;;1.43;;
8312;SDS011;4194;43.408;24.626;2023-02-01T13:47:31;4.17;;;1.77;;
8312;SDS011;4194;43.408;24.626;2023-02-01T13:50:01;5.43;;;2.23;;
8312;SDS011;4194;43.408;24.626;2023-02-01T13:52:38;4.37;;;1.70;;
8312;SDS011;4194;43.408;24.626;2023-02-01T13:57:52;4.73;;;1.63;;
8312;SDS011;4194;43.408;24.626;2023-02-01T14:00:29;4.23;;;1.90;;
8312;SDS011;4194;43.408;24.626;2023-02-01T14:13:30;2.23;;;1.53;;
8312;SDS011;4194;43.408;24.626;2023-02-01T14:29:30;2.00;;;1.40;;
8312;SDS011;4194;43.408;24.626;2023-02-01T14:34:35;4.27;;;1.63;;
8312;SDS011;4194;43.408;24.626;2023-02-01T14:44:52;1.43;;;1.33;;
8312;SDS011;4194;43.408;24.626;2023-02-01T14:49:55;4.27;;;1.80;;
8312;SDS011;4194;43.408;24.626;2023-02-01T14:52:35;2.37;;;1.60;;
8312;SDS011;4194;43.408;24.626;2023-02-01T14:55:08;9.13;;;1.93;;
8312;SDS011;4194;43.408;24.626;2023-02-01T14:57:41;2.67;;;1.47;;
8312;SDS011;4194;43.408;24.626;2023-02-01T15:00:44;1.53;;;1.43;;
8312;SDS011;4194;43.408;24.626;2023-02-01T15:14:22;2.20;;;1.63;;
8312;SDS011;4194;43.408;24.626;2023-02-01T15:16:48;3.43;;;1.97;;
8312;SDS011;4194;43.408;24.626;2023-02-01T15:19:24;3.30;;;1.90;;
8312;SDS011;4194;43.408;24.626;2023-02-01T15:21:55;2.63;;;1.97;;
8312;SDS011;4194;43.408;24.626;2023-02-01T15:24:23;6.60;;;2.20;;
8312;SDS011;4194;43.408;24.626;2023-02-01T15:26:53;5.07;;;2.27;;
8312;SDS011;4194;43.408;24.626;2023-02-01T15:29:20;7.97;;;2.73;;
8312;SDS011;4194;43.408;24.626;2023-02-01T15:31:50;7.23;;;3.00;;
8312;SDS011;4194;43.408;24.626;2023-02-01T15:34:17;34.93;;;6.17;;
8312;SDS011;4194;43.408;24.626;2023-02-01T15:36:44;18.50;;;4.90;;
8312;SDS011;4194;43.408;24.626;2023-02-01T15:39:12;7.87;;;3.47;;
8312;SDS011;4194;43.408;24.626;2023-02-01T15:41:56;6.63;;;3.60;;
8312;SDS011;4194;43.408;24.626;2023-02-01T15:44:44;7.37;;;3.13;;
8312;SDS011;4194;43.408;24.626;2023-02-01T15:49:53;8.67;;;2.50;;
8312;SDS011;4194;43.408;24.626;2023-02-01T15:54:54;6.40;;;2.80;;
8312;SDS011;4194;43.408;24.626;2023-02-01T15:57:23;3.83;;;2.60;;
8312;SDS011;4194;43.408;24.626;2023-02-01T15:59:55;6.97;;;2.50;;
8312;SDS011;4194;43.408;24.626;2023-02-01T16:02:43;13.80;;;6.90;;
8312;SDS011;4194;43.408;24.626;2023-02-01T16:05:32;30.03;;;15.57;;
8312;SDS011;4194;43.408;24.626;2023-02-01T16:08:01;18.23;;;8.73;;
8312;SDS011;4194;43.408;24.626;2023-02-01T16:10:41;20.10;;;9.23;;
8312;SDS011;4194;43.408;24.626;2023-02-01T16:13:09;9.93;;;4.50;;
8312;SDS011;4194;43.408;24.626;2023-02-01T16:15:35;9.43;;;5.73;;
8312;SDS011;4194;43.408;24.626;2023-02-01T16:18:02;11.23;;;6.07;;
8312;SDS011;4194;43.408;24.626;2023-02-01T16:20:27;45.30;;;20.73;;
8312;SDS011;4194;43.408;24.626;2023-02-01T16:22:54;50.27;;;22.47;;
8312;SDS011;4194;43.408;24.626;2023-02-01T16:25:20;44.50;;;22.33;;
8312;SDS011;4194;43.408;24.626;2023-02-01T16:27:46;11.40;;;6.40;;
8312;SDS011;4194;43.408;24.626;2023-02-01T16:30:11;6.97;;;4.77;;
8312;SDS011;4194;43.408;24.626;2023-02-01T16:32:37;5.50;;;3.50;;
8312;SDS011;4194;43.408;24.626;2023-02-01T16:35:04;7.47;;;3.53;;
8312;SDS011;4194;43.408;24.626;2023-02-01T16:37:44;8.30;;;3.63;;
8312;SDS011;4194;43.408;24.626;2023-02-01T16:40:16;8.37;;;4.10;;
8312;SDS011;4194;43.408;24.626;2023-02-01T16:42:44;6.37;;;3.27;;
8312;SDS011;4194;43.408;24.626;2023-02-01T16:45:12;6.53;;;3.33;;
8312;SDS011;4194;43.408;24.626;2023-02-01T16:47:39;10.17;;;5.27;;
8312;SDS011;4194;43.408;24.626;2023-02-01T16:50:15;7.50;;;3.03;;
8312;SDS011;4194;43.408;24.626;2023-02-01T16:52:42;4.40;;;3.23;;
8312;SDS011;4194;43.408;24.626;2023-02-01T16:55:12;3.97;;;2.33;;
8312;SDS011;4194;43.408;24.626;2023-02-01T16:57:39;3.30;;;2.23;;
8312;SDS011;4194;43.408;24.626;2023-02-01T17:00:05;5.20;;;2.20;;
8312;SDS011;4194;43.408;24.626;2023-02-01T17:02:33;4.90;;;2.43;;
8312;SDS011;4194;43.408;24.626;2023-02-01T17:04:59;3.03;;;2.27;;
8312;SDS011;4194;43.408;24.626;2023-02-01T17:07:24;5.70;;;2.70;;
8312;SDS011;4194;43.408;24.626;2023-02-01T17:09:52;3.93;;;2.00;;
8312;SDS011;4194;43.408;24.626;2023-02-01T17:12:27;3.07;;;2.13;;
8312;SDS011;4194;43.408;24.626;2023-02-01T17:14:57;4.90;;;2.03;;
8312;SDS011;4194;43.408;24.626;2023-02-01T17:17:32;10.10;;;2.03;;
8312;SDS011;4194;43.408;24.626;2023-02-01T17:20:01;4.10;;;2.00;;
8312;SDS011;4194;43.408;24.626;2023-02-01T17:22:28;3.60;;;2.20;;
8312;SDS011;4194;43.408;24.626;2023-02-01T17:24:53;3.40;;;2.40;;
8312;SDS011;4194;43.408;24.626;2023-02-01T17:27:19;5.63;;;2.43;;
8312;SDS011;4194;43.408;24.626;2023-02-01T17:29:45;3.83;;;2.20;;
8312;SDS011;4194;43.408;24.626;2023-02-01T17:32:16;2.97;;;2.20;;
8312;SDS011;4194;43.408;24.626;2023-02-01T17:34:44;3.43;;;2.40;;
8312;SDS011;4194;43.408;24.626;2023-02-01T17:37:18;4.83;;;2.40;;
8312;SDS011;4194;43.408;24.626;2023-02-01T17:39:53;2.80;;;2.17;;
8312;SDS011;4194;43.408;24.626;2023-02-01T17:42:19;4.07;;;2.37;;
8312;SDS011;4194;43.408;24.626;2023-02-01T17:44:45;4.00;;;2.80;;
8312;SDS011;4194;43.408;24.626;2023-02-01T17:47:11;6.93;;;2.97;;
8312;SDS011;4194;43.408;24.626;2023-02-01T17:49:37;4.70;;;3.07;;
8312;SDS011;4194;43.408;24.626;2023-02-01T17:52:03;6.00;;;3.77;;
8312;SDS011;4194;43.408;24.626;2023-02-01T17:54:29;6.90;;;3.33;;
8312;SDS011;4194;43.408;24.626;2023-02-01T17:56:55;5.63;;;3.37;;
8312;SDS011;4194;43.408;24.626;2023-02-01T17:59:24;7.40;;;3.67;;
8312;SDS011;4194;43.408;24.626;2023-02-01T18:01:50;5.67;;;3.70;;
8312;SDS011;4194;43.408;24.626;2023-02-01T18:04:18;6.70;;;3.80;;
8312;SDS011;4194;43.408;24.626;2023-02-01T18:06:45;6.73;;;3.73;;
8312;SDS011;4194;43.408;24.626;2023-02-01T18:09:11;7.50;;;3.57;;
8312;SDS011;4194;43.408;24.626;2023-02-01T18:11:37;5.33;;;3.23;;
8312;SDS011;4194;43.408;24.626;2023-02-01T18:14:03;7.27;;;2.80;;
8312;SDS011;4194;43.408;24.626;2023-02-01T18:16:33;5.70;;;2.90;;